createdAt,value
2023-05-12T00:00:44.427Z,41.11
2023-05-12T00:03:15.286Z,40.96
2023-05-12T00:05:45.806Z,41.08
2023-05-12T00:08:16.257Z,41.01
2023-05-12T00:10:46.453Z,40.89
2023-05-12T00:13:17.469Z,40.72
2023-05-12T00:15:49.929Z,41.07
2023-05-12T00:18:20.756Z,40.70
2023-05-12T00:20:51.165Z,41.33
2023-05-12T00:23:21.289Z,41.17
2023-05-12T00:25:51.952Z,40.75
2023-05-12T00:28:22.676Z,40.84
2023-05-12T00:30:55.006Z,41.17
2023-05-12T00:33:26.137Z,40.74
2023-05-12T00:35:56.719Z,40.98
2023-05-12T00:38:26.645Z,40.82
2023-05-12T00:40:57.095Z,41.32
2023-05-12T00:43:27.343Z,41.35
2023-05-12T00:46:00.382Z,41.51
2023-05-12T00:48:31.074Z,41.20
2023-05-12T00:51:03.090Z,40.96
2023-05-12T00:53:45.443Z,41.49
2023-05-12T00:56:19.746Z,40.96
2023-05-12T00:58:50.023Z,41.04
2023-05-12T01:01:22.234Z,41.48
2023-05-12T01:03:52.952Z,41.70
2023-05-12T01:06:35.343Z,41.61
2023-05-12T01:09:06.280Z,41.43
2023-05-12T01:11:36.777Z,41.51
2023-05-12T01:14:07.450Z,41.25
2023-05-12T01:16:48.600Z,41.32
2023-05-12T01:19:42.117Z,41.37
2023-05-12T01:22:15.063Z,41.11
2023-05-12T01:24:53.427Z,41.41
2023-05-12T01:27:28.058Z,41.36
2023-05-12T01:30:02.385Z,41.62
2023-05-12T01:32:32.913Z,41.83
2023-05-12T01:35:03.070Z,41.84
2023-05-12T01:37:33.696Z,41.80
2023-05-12T01:40:04.748Z,41.73
2023-05-12T01:42:37.426Z,41.51
2023-05-12T01:45:08.600Z,41.51
2023-05-12T01:47:39.361Z,41.57
2023-05-12T01:50:10.700Z,42.01
2023-05-12T01:52:44.998Z,41.65
2023-05-12T01:55:15.137Z,42.15
2023-05-12T01:57:46.761Z,41.96
2023-05-12T02:00:17.422Z,42.24
2023-05-12T02:02:47.945Z,41.61
2023-05-12T02:05:18.696Z,41.91
2023-05-12T02:07:49.214Z,41.57
2023-05-12T02:10:20.405Z,42.03
2023-05-12T02:12:52.516Z,41.93
2023-05-12T02:15:23.179Z,42.06
2023-05-12T02:17:54.749Z,42.23
2023-05-12T02:20:25.327Z,42.11
2023-05-12T02:22:55.533Z,41.88
2023-05-12T02:25:26.174Z,41.88
2023-05-12T02:27:58.133Z,41.84
2023-05-12T02:30:28.637Z,42.08
2023-05-12T02:32:59.109Z,42.05
2023-05-12T02:35:29.624Z,41.93
2023-05-12T02:38:00.226Z,42.23
2023-05-12T02:40:30.039Z,42.40
2023-05-12T02:43:02.048Z,42.09
2023-05-12T02:45:32.703Z,42.38
2023-05-12T02:48:02.804Z,42.48
2023-05-12T02:50:33.426Z,42.17
2023-05-12T02:53:03.589Z,42.18
2023-05-12T02:55:34.378Z,42.56
2023-05-12T02:58:06.384Z,42.51
2023-05-12T03:00:36.417Z,42.25
2023-05-12T03:03:06.550Z,42.05
2023-05-12T03:05:37.496Z,42.36
2023-05-12T03:08:08.037Z,42.50
2023-05-12T03:10:38.967Z,42.47
2023-05-12T03:13:11.356Z,42.42
2023-05-12T03:15:41.907Z,42.29
2023-05-12T03:18:12.542Z,42.35
2023-05-12T03:20:42.367Z,42.40
2023-05-12T03:23:12.987Z,42.40
2023-05-12T03:25:43.226Z,42.34
2023-05-12T03:28:15.484Z,42.29
2023-05-12T03:30:45.902Z,42.99
2023-05-12T03:33:16.449Z,42.85
2023-05-12T03:35:46.288Z,42.29
2023-05-12T03:38:16.361Z,42.63
2023-05-12T03:40:47.018Z,42.95
2023-05-12T03:43:19.955Z,42.37
2023-05-12T03:45:49.752Z,42.96
2023-05-12T03:48:19.859Z,42.52
2023-05-12T03:50:50.409Z,43.01
2023-05-12T03:53:21.129Z,42.55
2023-05-12T03:55:51.650Z,42.57
2023-05-12T03:58:25.426Z,42.76
2023-05-12T04:00:59.237Z,42.75
2023-05-12T04:03:29.757Z,42.87
2023-05-12T04:06:03.542Z,42.69
2023-05-12T04:08:34.440Z,42.86
2023-05-12T04:11:05.780Z,42.71
2023-05-12T04:13:38.255Z,43.01
2023-05-12T04:16:08.861Z,42.74
2023-05-12T04:18:38.984Z,43.11
2023-05-12T04:21:09.476Z,42.60
2023-05-12T04:23:40.802Z,43.03
2023-05-12T04:26:11.200Z,42.87
2023-05-12T04:28:44.466Z,43.21
2023-05-12T04:31:14.464Z,43.05
2023-05-12T04:33:46.481Z,43.37
2023-05-12T04:36:17.945Z,43.30
2023-05-12T04:38:47.853Z,43.16
2023-05-12T04:41:18.331Z,43.22
2023-05-12T04:46:24.430Z,43.37
2023-05-12T04:48:55.096Z,43.68
2023-05-12T04:51:25.597Z,43.59
2023-05-12T04:53:56.101Z,43.26
2023-05-12T04:56:26.535Z,43.68
2023-05-12T04:58:59.074Z,43.50
2023-05-12T05:01:29.617Z,43.79
2023-05-12T05:04:00.596Z,43.97
2023-05-12T05:06:31.097Z,44.02
2023-05-12T05:09:01.579Z,44.02
2023-05-12T05:11:32.110Z,43.95
2023-05-12T05:14:04.217Z,44.14
2023-05-12T05:16:34.788Z,44.25
2023-05-12T05:19:06.777Z,44.26
2023-05-12T05:21:42.502Z,44.53
2023-05-12T05:24:13.078Z,44.58
2023-05-12T05:26:43.553Z,44.48
2023-05-12T05:29:15.400Z,44.45
2023-05-12T05:31:45.691Z,44.15
2023-05-12T05:34:16.286Z,44.48
2023-05-12T05:36:46.877Z,44.45
2023-05-12T05:39:17.648Z,44.21
2023-05-12T05:41:48.001Z,44.72
2023-05-12T05:44:20.357Z,44.60
2023-05-12T05:46:50.817Z,44.01
2023-05-12T05:49:21.262Z,44.40
2023-05-12T05:51:51.946Z,44.10
2023-05-12T05:54:22.084Z,44.59
2023-05-12T05:56:51.952Z,44.32
2023-05-12T05:59:24.887Z,44.27
2023-05-12T06:01:54.965Z,44.10
2023-05-12T06:04:25.130Z,44.24
2023-05-12T06:06:54.810Z,44.26
2023-05-12T06:09:25.312Z,44.56
2023-05-12T06:11:55.721Z,43.97
2023-05-12T06:14:27.654Z,44.13
2023-05-12T06:16:57.780Z,43.88
2023-05-12T06:19:28.504Z,44.39
2023-05-12T06:21:58.805Z,44.32
2023-05-12T06:24:29.467Z,44.19
2023-05-12T06:26:59.938Z,43.93
2023-05-12T06:29:31.985Z,44.38
2023-05-12T06:32:02.565Z,44.02
2023-05-12T06:34:33.005Z,43.45
2023-05-12T06:37:03.461Z,43.56
2023-05-12T06:39:33.358Z,43.97
2023-05-12T06:42:03.367Z,43.63
2023-05-12T06:44:35.903Z,43.78
2023-05-12T06:47:06.113Z,44.13
2023-05-12T06:49:39.102Z,43.84
2023-05-12T06:52:10.334Z,44.04
2023-05-12T06:54:41.203Z,43.59
2023-05-12T06:57:11.803Z,43.65
2023-05-12T06:59:44.482Z,44.08
2023-05-12T07:02:14.369Z,43.87
2023-05-12T07:04:44.907Z,43.71
2023-05-12T07:07:15.208Z,44.04
2023-05-12T07:09:45.726Z,43.97
2023-05-12T07:12:16.412Z,43.59
2023-05-12T07:14:48.911Z,43.53
2023-05-12T07:17:19.545Z,43.60
2023-05-12T07:19:49.623Z,43.72
2023-05-12T07:22:23.623Z,43.84
2023-05-12T07:24:54.357Z,44.06
2023-05-12T07:27:24.922Z,43.51
2023-05-12T07:29:57.495Z,43.95
2023-05-12T07:32:28.578Z,43.81
2023-05-12T07:34:59.025Z,43.78
2023-05-12T07:37:29.048Z,43.50
2023-05-12T07:39:59.420Z,43.31
2023-05-12T07:42:30.421Z,43.77
2023-05-12T07:45:02.479Z,43.64
2023-05-12T07:47:33.090Z,43.34
2023-05-12T07:50:03.620Z,43.24
2023-05-12T07:52:34.064Z,43.70
2023-05-12T07:55:04.862Z,43.14
2023-05-12T07:57:35.227Z,43.31
2023-05-12T08:00:09.667Z,43.10
2023-05-12T08:02:40.557Z,43.47
2023-05-12T08:05:12.434Z,43.28
2023-05-12T08:07:44.092Z,43.07
2023-05-12T08:10:15.577Z,43.23
2023-05-12T08:12:45.528Z,42.95
2023-05-12T08:15:18.496Z,42.85
2023-05-12T08:17:49.176Z,43.21
2023-05-12T08:20:19.200Z,42.86
2023-05-12T08:22:51.152Z,43.17
2023-05-12T08:25:21.956Z,43.00
2023-05-12T08:27:53.737Z,43.14
2023-05-12T08:30:25.641Z,43.25
2023-05-12T08:32:56.639Z,42.89
2023-05-12T08:35:28.706Z,42.64
2023-05-12T08:38:00.607Z,42.90
2023-05-12T08:40:36.104Z,42.47
2023-05-12T08:43:17.690Z,42.30
2023-05-12T08:45:51.483Z,42.71
2023-05-12T08:48:24.653Z,42.40
2023-05-12T08:50:57.110Z,42.70
2023-05-12T08:53:30.382Z,42.80
2023-05-12T08:58:42.182Z,42.29
2023-05-12T09:01:16.522Z,42.69
2023-05-12T09:03:47.923Z,42.08
2023-05-12T09:06:19.430Z,42.42
2023-05-12T09:08:50.427Z,42.20
2023-05-12T09:11:22.965Z,42.03
2023-05-12T09:14:03.181Z,42.21
2023-05-12T09:16:41.794Z,42.00
2023-05-12T09:19:12.472Z,42.35
2023-05-12T09:21:43.318Z,42.38
2023-05-12T09:24:13.110Z,42.10
2023-05-12T09:26:51.025Z,42.01
2023-05-12T09:29:31.465Z,41.69
2023-05-12T09:32:06.030Z,42.02
2023-05-12T09:34:38.936Z,42.22
2023-05-12T09:37:11.871Z,42.00
2023-05-12T09:39:43.164Z,42.06
2023-05-12T09:42:17.869Z,41.68
2023-05-12T09:44:49.175Z,41.90
2023-05-12T09:47:22.300Z,41.51
2023-05-12T09:49:55.744Z,41.56
2023-05-12T09:52:28.352Z,41.88
2023-05-12T09:54:59.244Z,41.15
2023-05-12T09:57:30.367Z,41.37
2023-05-12T10:00:00.968Z,41.29
2023-05-12T10:02:35.601Z,41.15
2023-05-12T10:05:11.866Z,41.40
2023-05-12T10:07:43.493Z,41.22
2023-05-12T10:10:20.435Z,41.42
2023-05-12T10:12:52.272Z,41.28
2023-05-12T10:15:26.181Z,41.62
2023-05-12T10:18:00.891Z,41.48
2023-05-12T10:20:31.256Z,41.52
2023-05-12T10:23:03.842Z,41.10
2023-05-12T10:25:35.794Z,41.49
2023-05-12T10:28:06.730Z,40.91
2023-05-12T10:30:38.908Z,41.47
2023-05-12T10:33:12.087Z,41.19
2023-05-12T10:35:46.970Z,40.71
2023-05-12T10:38:20.276Z,41.34
2023-05-12T10:40:58.987Z,40.93
2023-05-12T10:43:31.306Z,40.88
2023-05-12T10:46:22.779Z,40.81
2023-05-12T10:49:05.328Z,41.23
2023-05-12T10:51:49.387Z,40.93
2023-05-12T10:54:32.089Z,41.12
2023-05-12T10:57:05.923Z,40.97
2023-05-12T10:59:50.336Z,41.49
2023-05-12T11:02:32.059Z,41.37
2023-05-12T11:05:06.993Z,40.89
2023-05-12T11:07:38.166Z,41.56
2023-05-12T11:10:17.533Z,41.41
2023-05-12T11:12:53.925Z,41.02
2023-05-12T11:15:31.662Z,41.37
2023-05-12T11:18:12.054Z,40.95
2023-05-12T11:20:54.215Z,41.00
2023-05-12T11:23:34.544Z,40.95
2023-05-12T11:26:07.780Z,41.37
2023-05-12T11:28:54.495Z,41.35
2023-05-12T11:31:37.547Z,40.91
2023-05-12T11:34:13.383Z,41.17
2023-05-12T11:37:00.137Z,41.03
2023-05-12T11:39:37.221Z,41.51
2023-05-12T11:42:14.669Z,40.89
2023-05-12T11:44:55.061Z,41.10
2023-05-12T11:47:28.573Z,41.21
2023-05-12T11:50:00.358Z,41.28
2023-05-12T11:52:39.985Z,41.51
2023-05-12T11:55:15.422Z,41.48
2023-05-12T11:57:48.327Z,41.16
2023-05-12T12:00:34.995Z,41.13
2023-05-12T12:03:19.223Z,41.15
2023-05-12T12:06:03.169Z,41.13
2023-05-12T12:08:47.021Z,41.69
2023-05-12T12:11:22.992Z,41.77
2023-05-12T12:13:58.656Z,41.19
2023-05-12T12:16:31.495Z,41.45
2023-05-12T12:19:08.752Z,41.49
2023-05-12T12:21:41.664Z,40.98
2023-05-12T12:24:21.694Z,41.70
2023-05-12T12:26:58.715Z,41.05
2023-05-12T12:29:32.302Z,41.75
2023-05-12T12:32:05.894Z,41.69
2023-05-12T12:34:38.362Z,41.06
2023-05-12T12:37:09.578Z,41.20
2023-05-12T12:39:42.278Z,41.64
2023-05-12T12:42:16.240Z,41.44
2023-05-12T12:44:50.782Z,41.62
2023-05-12T12:47:22.427Z,41.37
2023-05-12T12:49:54.489Z,41.30
2023-05-12T12:52:25.106Z,41.79
2023-05-12T12:54:57.522Z,41.47
2023-05-12T12:57:28.484Z,41.47
2023-05-12T12:59:58.715Z,41.17
2023-05-12T13:02:29.174Z,41.54
2023-05-12T13:04:59.367Z,41.34
2023-05-12T13:07:29.065Z,41.42
2023-05-12T13:10:01.829Z,41.81
2023-05-12T13:12:32.924Z,41.07
2023-05-12T13:15:03.682Z,41.60
2023-05-12T13:17:34.346Z,41.41
2023-05-12T13:20:04.841Z,41.05
2023-05-12T13:22:35.399Z,41.06
2023-05-12T13:25:08.566Z,41.46
2023-05-12T13:27:39.913Z,41.68
2023-05-12T13:30:13.495Z,41.20
2023-05-12T13:32:44.929Z,41.16
2023-05-12T13:35:15.399Z,41.44
2023-05-12T13:37:45.948Z,41.20
2023-05-12T13:40:21.179Z,41.06
2023-05-12T13:42:56.057Z,41.17
2023-05-12T13:45:26.740Z,41.54
2023-05-12T13:48:03.450Z,41.28
2023-05-12T13:50:34.136Z,41.26
2023-05-12T13:53:05.706Z,40.92
2023-05-12T13:55:40.984Z,41.39
2023-05-12T13:58:13.631Z,41.32
2023-05-12T14:00:45.669Z,40.79
2023-05-12T14:03:15.879Z,41.41
2023-05-12T14:05:46.201Z,40.81
2023-05-12T14:08:16.482Z,40.61
2023-05-12T14:10:48.600Z,40.62
2023-05-12T14:13:19.162Z,40.85
2023-05-12T14:15:50.314Z,40.71
2023-05-12T14:18:21.233Z,40.71
2023-05-12T14:20:52.047Z,40.58
2023-05-12T14:23:21.994Z,40.77
2023-05-12T14:25:54.411Z,40.74
2023-05-12T14:28:25.769Z,40.83
2023-05-12T14:30:57.679Z,40.78
2023-05-12T14:33:30.208Z,41.09
2023-05-12T14:36:08.734Z,41.10
2023-05-12T14:38:41.109Z,41.12
2023-05-12T14:41:15.378Z,41.00
2023-05-12T14:43:46.416Z,40.93
2023-05-12T14:46:18.838Z,41.59
2023-05-12T14:48:49.826Z,40.99
2023-05-12T14:51:22.566Z,41.03
2023-05-12T14:53:55.793Z,41.12
2023-05-12T14:56:33.991Z,41.20
2023-05-12T14:59:07.197Z,41.20
2023-05-12T15:01:37.987Z,41.21
2023-05-12T15:04:09.506Z,41.33
2023-05-12T15:06:40.657Z,41.39
2023-05-12T15:09:11.808Z,41.33
2023-05-12T15:11:45.010Z,42.02
2023-05-12T15:14:15.145Z,41.56
2023-05-12T15:16:45.830Z,41.75
2023-05-12T15:19:17.860Z,41.92
2023-05-12T15:21:48.511Z,41.71
2023-05-12T15:24:19.293Z,41.64
2023-05-12T15:26:51.922Z,41.35
2023-05-12T15:29:22.509Z,41.96
2023-05-12T15:31:53.130Z,41.73
2023-05-12T15:34:23.860Z,41.65
2023-05-12T15:36:54.494Z,41.74
2023-05-12T15:39:25.088Z,41.87
2023-05-12T15:41:56.885Z,41.52
2023-05-12T15:44:27.850Z,42.13
2023-05-12T15:46:57.850Z,42.16
2023-05-12T15:49:28.792Z,41.50
2023-05-12T15:51:59.219Z,41.96
2023-05-12T15:54:30.886Z,42.25
2023-05-12T15:57:02.912Z,42.27
2023-05-12T15:59:33.629Z,42.29
2023-05-12T16:02:03.809Z,42.07
2023-05-12T16:04:33.885Z,41.68
2023-05-12T16:07:04.095Z,41.79
2023-05-12T16:09:34.622Z,42.17
2023-05-12T16:12:09.294Z,42.03
2023-05-12T16:14:39.393Z,41.79
2023-05-12T16:17:10.230Z,41.92
2023-05-12T16:19:40.298Z,42.07
2023-05-12T16:22:10.951Z,42.32
2023-05-12T16:24:41.099Z,42.23
2023-05-12T16:27:13.177Z,41.82
2023-05-12T16:29:45.961Z,41.93
2023-05-12T16:32:17.943Z,42.11
2023-05-12T16:34:48.404Z,42.53
2023-05-12T16:37:18.541Z,42.44
2023-05-12T16:39:49.030Z,41.95
2023-05-12T16:42:21.705Z,42.25
2023-05-12T16:44:55.368Z,42.49
2023-05-12T16:47:26.885Z,42.20
2023-05-12T16:49:58.420Z,42.26
2023-05-12T16:52:32.237Z,42.19
2023-05-12T16:55:04.784Z,42.25
2023-05-12T16:57:37.945Z,42.77
2023-05-12T17:00:11.740Z,42.40
2023-05-12T17:02:43.695Z,42.28
2023-05-12T17:05:16.529Z,42.15
2023-05-12T17:07:52.629Z,42.55
2023-05-12T17:10:23.892Z,42.82
2023-05-12T17:12:55.923Z,42.51
2023-05-12T17:15:30.381Z,42.88
2023-05-12T17:18:03.251Z,42.39
2023-05-12T17:20:35.032Z,42.77
2023-05-12T17:23:08.754Z,42.40
2023-05-12T17:25:40.156Z,42.48
2023-05-12T17:28:17.004Z,42.54
2023-05-12T17:30:53.013Z,42.61
2023-05-12T17:33:25.201Z,42.44
2023-05-12T17:36:10.980Z,42.46
2023-05-12T17:38:48.594Z,42.65
2023-05-12T17:41:21.843Z,42.35
2023-05-12T17:43:59.633Z,42.79
2023-05-12T17:46:46.825Z,42.78
2023-05-12T17:49:21.159Z,42.66
2023-05-12T17:51:54.257Z,42.80
2023-05-12T17:54:29.347Z,42.78
2023-05-12T17:57:04.384Z,42.97
2023-05-12T17:59:40.555Z,43.25
2023-05-12T18:02:17.828Z,42.91
2023-05-12T18:04:53.080Z,43.02
2023-05-12T18:07:27.913Z,43.02
2023-05-12T18:10:02.513Z,43.17
2023-05-12T18:12:39.260Z,42.84
2023-05-12T18:15:18.506Z,42.96
2023-05-12T18:17:53.719Z,43.10
2023-05-12T18:20:29.664Z,43.02
2023-05-12T18:23:04.484Z,42.94
2023-05-12T18:25:37.777Z,43.19
2023-05-12T18:28:14.706Z,42.81
2023-05-12T18:30:58.004Z,42.95
2023-05-12T18:33:35.522Z,42.82
2023-05-12T18:36:11.918Z,43.00
2023-05-12T18:38:46.180Z,43.33
2023-05-12T18:41:23.195Z,43.38
2023-05-12T18:44:05.580Z,43.12
2023-05-12T18:46:43.970Z,43.17
2023-05-12T18:49:22.744Z,43.28
2023-05-12T18:51:56.980Z,43.36
2023-05-12T18:54:31.733Z,43.64
2023-05-12T18:57:09.630Z,43.24
2023-05-12T18:59:52.971Z,43.20
2023-05-12T19:02:38.708Z,43.12
2023-05-12T19:05:15.773Z,43.24
2023-05-12T19:07:54.257Z,43.68
2023-05-12T19:10:29.618Z,43.09
2023-05-12T19:13:11.197Z,43.56
2023-05-12T19:15:53.532Z,43.19
2023-05-12T19:18:39.894Z,43.19
2023-05-12T19:21:18.992Z,43.78
2023-05-12T19:24:04.880Z,43.46
2023-05-12T19:26:41.218Z,43.45
2023-05-12T19:29:16.986Z,43.58
2023-05-12T19:31:53.672Z,43.48
2023-05-12T19:34:34.095Z,43.57
2023-05-12T19:37:11.800Z,43.94
2023-05-12T19:40:00.462Z,43.38
2023-05-12T19:42:34.865Z,43.65
2023-05-12T19:45:14.110Z,43.25
2023-05-12T19:47:49.535Z,43.80
2023-05-12T19:50:44.753Z,43.75
2023-05-12T19:53:24.572Z,43.78
2023-05-12T19:56:08.905Z,43.47
2023-05-12T19:58:46.690Z,43.93
2023-05-12T20:01:25.611Z,43.59
2023-05-12T20:04:02.114Z,43.61
2023-05-12T20:06:45.564Z,43.47
2023-05-12T20:09:21.679Z,43.73
2023-05-12T20:11:59.070Z,43.95
2023-05-12T20:14:33.721Z,44.19
2023-05-12T20:17:11.267Z,43.65
2023-05-12T20:19:49.302Z,44.14
2023-05-12T20:22:29.165Z,43.80
2023-05-12T20:25:10.183Z,44.11
2023-05-12T20:27:45.347Z,44.04
2023-05-12T20:30:22.968Z,44.07
2023-05-12T20:33:07.616Z,44.09
2023-05-12T20:35:49.226Z,43.89
2023-05-12T20:38:28.704Z,43.84
2023-05-12T20:41:18.646Z,43.68
2023-05-12T20:43:57.374Z,44.07
2023-05-12T20:46:37.871Z,43.79
2023-05-12T20:49:25.810Z,43.90
2023-05-12T20:52:06.224Z,43.82
2023-05-12T20:54:48.098Z,44.04
2023-05-12T20:57:24.583Z,43.86
2023-05-12T21:00:02.146Z,44.12
2023-05-12T21:02:39.911Z,44.04
2023-05-12T21:05:20.027Z,43.79
2023-05-12T21:07:56.683Z,43.98
2023-05-12T21:10:39.774Z,43.83
2023-05-12T21:13:16.282Z,44.32
2023-05-12T21:15:50.769Z,43.92
2023-05-12T21:18:27.462Z,43.99
2023-05-12T21:21:04.457Z,44.30
2023-05-12T21:23:38.988Z,44.36
2023-05-12T21:26:24.775Z,44.13
2023-05-12T21:28:59.994Z,43.76
2023-05-12T21:31:35.776Z,44.21
2023-05-12T21:34:11.294Z,43.92
2023-05-12T21:36:44.305Z,43.83
2023-05-12T21:39:15.326Z,43.84
2023-05-12T21:41:53.716Z,44.18
2023-05-12T21:44:25.472Z,43.84
2023-05-12T21:46:59.136Z,44.19
2023-05-12T21:49:35.227Z,43.96
2023-05-12T21:52:08.681Z,44.07
2023-05-12T21:54:40.436Z,44.22
2023-05-12T21:57:13.075Z,44.34
2023-05-12T21:59:43.556Z,44.06
2023-05-12T22:02:14.277Z,44.09
2023-05-12T22:04:45.317Z,43.99
2023-05-12T22:07:16.322Z,43.93
2023-05-12T22:09:47.116Z,44.08
2023-05-12T22:12:21.744Z,44.54
2023-05-12T22:14:52.434Z,44.25
2023-05-12T22:17:23.160Z,44.22
2023-05-12T22:19:53.687Z,44.36
2023-05-12T22:22:24.364Z,44.08
2023-05-12T22:24:54.866Z,44.06
2023-05-12T22:27:27.238Z,44.40
2023-05-12T22:29:57.885Z,44.40
2023-05-12T22:32:28.781Z,44.09
2023-05-12T22:34:59.436Z,44.74
2023-05-12T22:37:29.430Z,44.00
2023-05-12T22:39:59.491Z,44.21
2023-05-12T22:42:31.605Z,44.30
2023-05-12T22:45:05.128Z,44.39
2023-05-12T22:47:35.845Z,44.40
2023-05-12T22:50:06.523Z,44.56
2023-05-12T22:52:37.098Z,44.27
2023-05-12T22:55:08.112Z,44.25
2023-05-12T22:57:41.297Z,44.29
2023-05-12T23:00:13.436Z,44.43
2023-05-12T23:02:43.571Z,44.45
2023-05-12T23:05:14.650Z,44.36
2023-05-12T23:07:44.762Z,44.43
2023-05-12T23:10:15.010Z,44.45
2023-05-12T23:12:47.539Z,44.17
2023-05-12T23:15:18.278Z,44.39
2023-05-12T23:17:48.433Z,44.34
2023-05-12T23:20:19.402Z,44.43
2023-05-12T23:22:49.537Z,43.96
2023-05-12T23:25:19.959Z,44.35
2023-05-12T23:27:52.394Z,44.47
2023-05-12T23:30:23.403Z,44.13
2023-05-12T23:32:53.378Z,44.65
2023-05-12T23:35:25.417Z,44.10
2023-05-12T23:37:56.046Z,44.29
2023-05-12T23:40:26.813Z,44.11
2023-05-12T23:42:58.971Z,44.20
2023-05-12T23:45:29.254Z,44.09
2023-05-12T23:47:59.851Z,44.52
2023-05-12T23:50:30.492Z,44.46
2023-05-12T23:53:03.937Z,44.37
2023-05-12T23:55:34.573Z,44.31
2023-05-12T23:58:07.265Z,44.11
